createdAt,value
2022-08-17T00:01:51.442Z,101095.13
2022-08-17T00:04:20.742Z,101092.66
2022-08-17T00:06:49.373Z,101096.69
2022-08-17T00:09:18.904Z,101094.56
2022-08-17T00:12:41.674Z,101103.78
2022-08-17T00:14:36.221Z,101107.38
2022-08-17T00:17:07.030Z,101117.06
2022-08-17T00:19:34.650Z,101117.44
2022-08-17T00:22:34.400Z,101129.59
2022-08-17T00:24:50.552Z,101123.22
2022-08-17T00:27:18.237Z,101113.88
2022-08-17T00:29:46.832Z,101117.91
2022-08-17T00:33:12.667Z,101110.94
2022-08-17T00:35:05.151Z,101101.50
2022-08-17T00:37:32.669Z,101101.75
2022-08-17T00:40:00.366Z,101096.31
2022-08-17T00:42:31.136Z,101097.03
2022-08-17T00:44:59.095Z,101100.59
2022-08-17T00:47:28.010Z,101102.13
2022-08-17T00:49:55.523Z,101102.00
2022-08-17T00:52:25.911Z,101106.38
2022-08-17T00:54:55.727Z,101105.09
2022-08-17T00:57:25.844Z,101103.78
2022-08-17T01:00:01.646Z,101110.66
2022-08-17T01:02:42.540Z,101119.06
2022-08-17T01:05:13.562Z,101108.06
2022-08-17T01:07:41.701Z,101107.59
2022-08-17T01:10:57.296Z,101103.47
2022-08-17T01:12:59.035Z,101106.31
2022-08-17T01:15:27.141Z,101114.81
2022-08-17T01:17:56.055Z,101101.34
2022-08-17T01:20:23.870Z,101108.66
2022-08-17T01:22:52.933Z,101104.19
2022-08-17T01:25:22.319Z,101105.00
2022-08-17T01:27:50.517Z,101094.03
2022-08-17T01:30:58.469Z,101079.50
2022-08-17T01:33:06.123Z,101076.31
2022-08-17T01:35:33.669Z,101094.16
2022-08-17T01:38:02.960Z,101090.13
2022-08-17T01:40:33.889Z,101092.97
2022-08-17T01:43:02.613Z,101094.16
2022-08-17T01:45:32.107Z,101092.50
2022-08-17T01:47:59.669Z,101084.34
2022-08-17T01:50:28.860Z,101092.38
2022-08-17T01:52:58.193Z,101091.91
2022-08-17T01:55:39.177Z,101089.81
2022-08-17T01:58:09.648Z,101090.53
2022-08-17T02:00:47.073Z,101090.41
2022-08-17T02:03:25.942Z,101089.47
2022-08-17T02:05:54.216Z,101093.47
2022-08-17T02:08:39.258Z,101085.34
2022-08-17T02:11:14.595Z,101080.03
2022-08-17T02:13:42.441Z,101077.56
2022-08-17T02:16:09.981Z,101077.91
2022-08-17T02:18:37.507Z,101077.09
2022-08-17T02:21:05.322Z,101085.56
2022-08-17T02:23:34.316Z,101081.91
2022-08-17T02:26:02.431Z,101087.22
2022-08-17T02:28:31.701Z,101086.53
2022-08-17T02:31:04.684Z,101098.78
2022-08-17T02:33:42.816Z,101089.59
2022-08-17T02:36:11.447Z,101087.22
2022-08-17T02:38:39.481Z,101092.06
2022-08-17T02:41:07.316Z,101095.25
2022-08-17T02:43:36.715Z,101089.13
2022-08-17T02:46:04.428Z,101097.97
2022-08-17T02:48:32.250Z,101100.78
2022-08-17T02:50:59.980Z,101083.81
2022-08-17T02:53:27.530Z,101098.78
2022-08-17T02:56:01.214Z,101102.81
2022-08-17T02:58:34.450Z,101095.97
2022-08-17T03:01:06.277Z,101102.44
2022-08-17T03:03:34.073Z,101093.59
2022-08-17T03:06:02.143Z,101089.59
2022-08-17T03:08:30.181Z,101094.53
2022-08-17T03:10:57.876Z,101094.19
2022-08-17T03:13:25.401Z,101093.00
2022-08-17T03:15:53.035Z,101090.63
2022-08-17T03:18:25.527Z,101095.56
2022-08-17T03:20:54.055Z,101102.19
2022-08-17T03:23:23.941Z,101108.78
2022-08-17T03:25:52.816Z,101105.94
2022-08-17T03:28:21.384Z,101115.28
2022-08-17T03:30:48.946Z,101115.28
2022-08-17T03:33:16.938Z,101132.75
2022-08-17T03:35:45.916Z,101154.25
2022-08-17T03:38:15.327Z,101187.53
2022-08-17T03:40:56.792Z,101215.13
2022-08-17T03:43:27.369Z,101238.97
2022-08-17T03:46:29.040Z,101247.88
2022-08-17T03:49:17.153Z,101244.56
2022-08-17T03:52:03.465Z,101233.22
2022-08-17T03:54:48.580Z,101225.56
2022-08-17T03:57:16.330Z,101226.03
2022-08-17T03:59:45.018Z,101233.31
2022-08-17T04:02:14.311Z,101230.13
2022-08-17T04:04:41.866Z,101223.28
2022-08-17T04:07:10.806Z,101232.59
2022-08-17T04:09:38.373Z,101227.41
2022-08-17T04:12:06.317Z,101215.72
2022-08-17T04:14:39.206Z,101215.38
2022-08-17T04:17:21.813Z,101239.34
2022-08-17T04:19:49.339Z,101238.63
2022-08-17T04:22:30.847Z,101240.66
2022-08-17T04:25:01.635Z,101244.66
2022-08-17T04:27:29.189Z,101239.81
2022-08-17T04:29:56.883Z,101230.13
2022-08-17T04:33:04.768Z,101222.47
2022-08-17T04:35:11.933Z,101229.31
2022-08-17T04:37:40.788Z,101228.47
2022-08-17T04:40:27.163Z,101233.31
2022-08-17T04:43:01.328Z,101232.84
2022-08-17T04:45:32.334Z,101232.38
2022-08-17T04:48:00.655Z,101235.91
2022-08-17T04:50:28.214Z,101222.94
2022-08-17T04:52:58.628Z,101216.91
2022-08-17T04:55:26.396Z,101207.22
2022-08-17T04:57:54.029Z,101208.03
2022-08-17T05:00:21.620Z,101202.38
2022-08-17T05:02:50.643Z,101193.41
2022-08-17T05:05:19.403Z,101189.28
2022-08-17T05:07:48.351Z,101188.44
2022-08-17T05:10:17.308Z,101177.84
2022-08-17T05:12:44.850Z,101175.72
2022-08-17T05:15:12.721Z,101177.63
2022-08-17T05:17:40.256Z,101173.00
2022-08-17T05:20:08.295Z,101176.53
2022-08-17T05:22:35.853Z,101169.50
2022-08-17T05:25:03.502Z,101166.53
2022-08-17T05:27:35.466Z,101172.09
2022-08-17T05:30:03.707Z,101161.47
2022-08-17T05:32:39.322Z,101174.78
2022-08-17T05:35:08.469Z,101171.84
2022-08-17T05:37:35.982Z,101167.34
2022-08-17T05:40:03.625Z,101165.25
2022-08-17T05:42:32.559Z,101166.78
2022-08-17T05:45:00.115Z,101162.66
2022-08-17T05:47:28.116Z,101160.16
2022-08-17T05:49:56.784Z,101167.84
2022-08-17T05:52:32.157Z,101168.19
2022-08-17T05:55:07.768Z,101160.88
2022-08-17T05:57:47.680Z,101156.03
2022-08-17T06:00:30.259Z,101159.69
2022-08-17T06:03:11.978Z,101177.16
2022-08-17T06:05:46.999Z,101174.81
2022-08-17T06:08:20.211Z,101162.31
2022-08-17T06:10:53.134Z,101149.78
2022-08-17T06:13:28.480Z,101145.78
2022-08-17T06:15:59.663Z,101131.28
2022-08-17T06:18:29.951Z,101118.72
2022-08-17T06:20:59.493Z,101123.22
2022-08-17T06:23:28.736Z,101135.38
2022-08-17T06:25:59.667Z,101138.69
2022-08-17T06:28:32.129Z,101150.00
2022-08-17T06:31:05.669Z,101164.63
2022-08-17T06:33:35.574Z,101173.63
2022-08-17T06:36:09.949Z,101174.44
2022-08-17T06:38:43.073Z,101182.94
2022-08-17T06:41:16.360Z,101201.09
2022-08-17T06:43:51.575Z,101217.63
2022-08-17T06:46:22.728Z,101213.84
2022-08-17T06:48:55.740Z,101205.25
2022-08-17T06:51:29.124Z,101210.91
2022-08-17T06:54:01.017Z,101206.44
2022-08-17T06:56:52.987Z,101197.09
2022-08-17T06:59:25.070Z,101217.28
2022-08-17T07:01:55.374Z,101219.28
2022-08-17T07:04:26.144Z,101213.63
2022-08-17T07:06:55.401Z,101204.31
2022-08-17T07:09:28.053Z,101200.66
2022-08-17T07:11:57.866Z,101201.81
2022-08-17T07:14:36.523Z,101216.69
2022-08-17T07:17:07.603Z,101222.69
2022-08-17T07:19:36.698Z,101223.03
2022-08-17T07:22:08.502Z,101228.69
2022-08-17T07:24:43.266Z,101237.53
2022-08-17T07:27:12.518Z,101242.72
2022-08-17T07:29:43.938Z,101250.75
2022-08-17T07:32:12.319Z,101263.97
2022-08-17T07:35:00.745Z,101267.34
2022-08-17T07:37:28.426Z,101265.75
2022-08-17T07:39:59.601Z,101277.31
2022-08-17T07:42:45.137Z,101272.69
2022-08-17T07:45:29.977Z,101258.75
2022-08-17T07:48:15.735Z,101253.78
2022-08-17T07:50:49.289Z,101256.13
2022-08-17T07:53:19.167Z,101256.50
2022-08-17T07:55:46.959Z,101250.38
2022-08-17T07:58:17.501Z,101256.88
2022-08-17T08:00:46.458Z,101270.19
2022-08-17T08:03:16.565Z,101265.69
2022-08-17T08:05:55.896Z,101275.34
2022-08-17T08:08:27.993Z,101274.53
2022-08-17T08:11:00.604Z,101278.53
2022-08-17T08:13:29.593Z,101271.22
2022-08-17T08:16:14.827Z,101278.03
2022-08-17T08:18:55.715Z,101276.03
2022-08-17T08:21:29.929Z,101273.56
2022-08-17T08:24:00.385Z,101273.22
2022-08-17T08:26:34.906Z,101277.56
2022-08-17T08:29:12.601Z,101274.72
2022-08-17T08:31:48.248Z,101276.88
2022-08-17T08:35:00.165Z,101277.34
2022-08-17T08:37:22.750Z,101278.66
2022-08-17T08:39:59.560Z,101275.13
2022-08-17T08:42:32.879Z,101276.44
2022-08-17T08:45:06.675Z,101275.38
2022-08-17T08:47:50.164Z,101259.72
2022-08-17T08:50:30.170Z,101260.69
2022-08-17T08:53:10.520Z,101262.00
2022-08-17T08:55:46.370Z,101262.94
2022-08-17T08:58:31.398Z,101263.88
2022-08-17T09:01:08.727Z,101267.34
2022-08-17T09:04:02.830Z,101268.69
2022-08-17T09:06:46.135Z,101263.97
2022-08-17T09:09:30.285Z,101262.06
2022-08-17T09:12:03.985Z,101265.84
2022-08-17T09:14:43.149Z,101257.50
2022-08-17T09:17:16.497Z,101256.44
2022-08-17T09:19:49.395Z,101248.56
2022-08-17T09:22:23.072Z,101253.63
2022-08-17T09:24:57.003Z,101259.19
2022-08-17T09:27:28.274Z,101248.06
2022-08-17T09:29:58.894Z,101255.16
2022-08-17T09:32:32.730Z,101258.59
2022-08-17T09:35:05.373Z,101268.06
2022-08-17T09:37:36.557Z,101272.63
2022-08-17T09:40:10.442Z,101271.09
2022-08-17T09:42:41.967Z,101263.06
2022-08-17T09:45:17.121Z,101265.22
2022-08-17T09:47:49.249Z,101259.19
2022-08-17T09:51:03.387Z,101264.50
2022-08-17T09:53:09.591Z,101255.66
2022-08-17T09:55:44.223Z,101250.31
2022-08-17T09:58:19.659Z,101262.84
2022-08-17T10:00:52.232Z,101254.34
2022-08-17T10:03:28.222Z,101256.00
2022-08-17T10:06:01.964Z,101262.50
2022-08-17T10:08:37.616Z,101257.66
2022-08-17T10:11:15.993Z,101272.66
2022-08-17T10:13:53.048Z,101275.59
2022-08-17T10:16:24.542Z,101279.78
2022-08-17T10:18:58.804Z,101275.38
2022-08-17T10:21:45.216Z,101274.19
2022-08-17T10:24:33.296Z,101271.84
2022-08-17T10:27:02.493Z,101267.00
2022-08-17T10:29:48.417Z,101267.81
2022-08-17T10:32:22.358Z,101276.78
2022-08-17T10:34:57.034Z,101283.28
2022-08-17T10:37:37.566Z,101278.44
2022-08-17T10:40:12.452Z,101273.97
2022-08-17T10:42:47.010Z,101273.84
2022-08-17T10:45:18.803Z,101290.38
2022-08-17T10:48:04.838Z,101298.78
2022-08-17T10:50:54.136Z,101304.78
2022-08-17T10:53:40.622Z,101310.44
2022-08-17T10:56:23.492Z,101312.13
2022-08-17T10:58:53.895Z,101313.78
2022-08-17T11:01:23.201Z,101309.63
2022-08-17T11:03:55.070Z,101306.31
2022-08-17T11:06:28.526Z,101293.31
2022-08-17T11:09:20.416Z,101294.84
2022-08-17T11:12:06.604Z,101305.22
2022-08-17T11:14:41.191Z,101303.47
2022-08-17T11:17:21.280Z,101312.22
2022-08-17T11:19:59.213Z,101313.28
2022-08-17T11:22:36.718Z,101321.63
2022-08-17T11:25:13.754Z,101317.38
2022-08-17T11:27:43.852Z,101320.34
2022-08-17T11:30:13.355Z,101333.88
2022-08-17T11:32:47.076Z,101363.59
2022-08-17T11:35:28.364Z,101391.00
2022-08-17T11:38:02.856Z,101375.03
2022-08-17T11:40:48.814Z,101356.72
2022-08-17T11:43:27.285Z,101368.28
2022-08-17T11:46:03.900Z,101383.81
2022-08-17T11:48:54.756Z,101367.53
2022-08-17T11:51:35.261Z,101350.41
2022-08-17T11:54:31.243Z,101355.09
2022-08-17T11:56:53.325Z,101327.47
2022-08-17T11:59:40.908Z,101314.34
2022-08-17T12:02:25.257Z,101306.59
2022-08-17T12:05:04.619Z,101304.44
2022-08-17T12:07:41.678Z,101314.09
2022-08-17T12:10:12.222Z,101310.44
2022-08-17T12:12:44.131Z,101312.31
2022-08-17T12:15:17.467Z,101310.53
2022-08-17T12:17:52.964Z,101320.88
2022-08-17T12:20:25.472Z,101302.25
2022-08-17T12:23:01.186Z,101304.72
2022-08-17T12:25:33.866Z,101300.72
2022-08-17T12:28:06.666Z,101284.72
2022-08-17T12:30:35.480Z,101280.34
2022-08-17T12:33:03.038Z,101278.69
2022-08-17T12:35:34.554Z,101289.53
2022-08-17T12:38:03.405Z,101294.03
2022-08-17T12:40:32.301Z,101304.66
2022-08-17T12:43:00.714Z,101306.78
2022-08-17T12:45:30.307Z,101306.94
2022-08-17T12:48:02.658Z,101306.94
2022-08-17T12:50:30.389Z,101310.59
2022-08-17T12:53:02.456Z,101312.25
2022-08-17T12:55:32.536Z,101309.41
2022-08-17T12:58:02.028Z,101310.69
2022-08-17T13:00:31.484Z,101313.19
2022-08-17T13:03:00.224Z,101319.31
2022-08-17T13:05:28.930Z,101312.50
2022-08-17T13:07:57.066Z,101318.63
2022-08-17T13:10:32.483Z,101327.28
2022-08-17T13:13:04.723Z,101332.94
2022-08-17T13:15:36.838Z,101332.59
2022-08-17T13:18:07.104Z,101334.25
2022-08-17T13:20:35.653Z,101338.28
2022-08-17T13:23:09.975Z,101334.25
2022-08-17T13:25:41.152Z,101335.56
2022-08-17T13:28:18.006Z,101337.69
2022-08-17T13:31:12.296Z,101332.16
2022-08-17T13:33:43.688Z,101328.97
2022-08-17T13:36:12.722Z,101326.75
2022-08-17T13:38:50.942Z,101324.41
2022-08-17T13:41:34.393Z,101324.19
2022-08-17T13:44:02.291Z,101319.47
2022-08-17T13:46:32.101Z,101319.94
2022-08-17T13:49:01.519Z,101319.72
2022-08-17T13:51:30.711Z,101322.69
2022-08-17T13:54:07.713Z,101319.16
2022-08-17T13:56:39.925Z,101313.38
2022-08-17T13:59:08.985Z,101309.13
2022-08-17T14:01:37.985Z,101314.69
2022-08-17T14:04:07.631Z,101309.59
2022-08-17T14:06:52.135Z,101298.75
2022-08-17T14:09:23.406Z,101296.38
2022-08-17T14:11:52.758Z,101292.84
2022-08-17T14:14:23.166Z,101295.69
2022-08-17T14:16:50.864Z,101292.50
2022-08-17T14:19:18.449Z,101296.97
2022-08-17T14:21:47.321Z,101299.00
2022-08-17T14:24:21.002Z,101296.97
2022-08-17T14:26:48.623Z,101294.50
2022-08-17T14:29:17.549Z,101303.22
2022-08-17T14:31:48.448Z,101296.25
2022-08-17T14:34:21.693Z,101295.44
2022-08-17T14:36:49.363Z,101292.13
2022-08-17T14:39:17.853Z,101288.81
2022-08-17T14:41:45.414Z,101286.34
2022-08-17T14:44:13.571Z,101290.38
2022-08-17T14:46:43.984Z,101283.06
2022-08-17T14:49:12.262Z,101285.06
2022-08-17T14:51:43.865Z,101278.66
2022-08-17T14:54:11.996Z,101282.44
2022-08-17T14:57:15.585Z,101288.22
2022-08-17T14:59:48.839Z,101291.53
2022-08-17T15:02:22.146Z,101283.50
2022-08-17T15:04:59.982Z,101285.66
2022-08-17T15:07:30.292Z,101281.63
2022-08-17T15:10:00.385Z,101280.31
2022-08-17T15:12:32.850Z,101283.63
2022-08-17T15:15:01.602Z,101286.25
2022-08-17T15:17:44.644Z,101283.41
2022-08-17T15:20:15.193Z,101287.44
2022-08-17T15:22:43.371Z,101283.41
2022-08-17T15:25:13.320Z,101285.19
2022-08-17T15:27:40.998Z,101286.94
2022-08-17T15:30:09.874Z,101282.69
2022-08-17T15:32:40.552Z,101278.06
2022-08-17T15:35:11.768Z,101286.69
2022-08-17T15:37:40.093Z,101282.19
2022-08-17T15:40:08.893Z,101272.16
2022-08-17T15:42:36.823Z,101270.63
2022-08-17T15:45:07.092Z,101284.09
2022-08-17T15:47:34.616Z,101273.94
2022-08-17T15:50:05.496Z,101276.88
2022-08-17T15:52:37.894Z,101281.84
2022-08-17T15:55:06.503Z,101285.03
2022-08-17T15:57:34.692Z,101289.41
2022-08-17T16:00:03.433Z,101287.16
2022-08-17T16:03:46.813Z,101290.22
2022-08-17T16:05:31.135Z,101287.28
2022-08-17T16:07:59.517Z,101288.38
2022-08-17T16:10:35.240Z,101285.91
2022-08-17T16:13:03.865Z,101288.25
2022-08-17T16:15:32.155Z,101292.97
2022-08-17T16:18:00.123Z,101288.00
2022-08-17T16:20:30.638Z,101290.28
2022-08-17T16:22:58.636Z,101287.31
2022-08-17T16:25:47.201Z,101294.50
2022-08-17T16:28:17.909Z,101290.00
2022-08-17T16:30:45.423Z,101287.53
2022-08-17T16:33:13.574Z,101283.75
2022-08-17T16:35:42.942Z,101282.44
2022-08-17T16:38:12.398Z,101292.13
2022-08-17T16:40:40.484Z,101287.16
2022-08-17T16:43:10.644Z,101290.81
2022-08-17T16:45:40.344Z,101298.50
2022-08-17T16:48:08.560Z,101300.16
2022-08-17T16:50:36.237Z,101298.50
2022-08-17T16:53:06.487Z,101300.88
2022-08-17T16:55:35.886Z,101298.41
2022-08-17T16:58:03.966Z,101293.09
2022-08-17T17:00:33.075Z,101299.09
2022-08-17T17:03:20.012Z,101313.63
2022-08-17T17:05:58.010Z,101307.81
2022-08-17T17:08:30.301Z,101303.22
2022-08-17T17:10:59.680Z,101311.22
2022-08-17T17:13:33.220Z,101319.28
2022-08-17T17:16:06.296Z,101308.31
2022-08-17T17:18:40.160Z,101310.31
2022-08-17T17:21:13.308Z,101319.97
2022-08-17T17:23:47.455Z,101313.84
2022-08-17T17:26:28.267Z,101313.00
2022-08-17T17:29:04.892Z,101307.69
2022-08-17T17:31:34.189Z,101306.03
2022-08-17T17:34:04.760Z,101308.03
2022-08-17T17:36:35.594Z,101306.88
2022-08-17T17:39:06.280Z,101302.84
2022-08-17T17:41:35.012Z,101299.66
2022-08-17T17:44:07.458Z,101303.34
2022-08-17T17:46:38.825Z,101313.50
2022-08-17T17:49:06.928Z,101313.50
2022-08-17T17:51:55.028Z,101305.34
2022-08-17T17:54:36.326Z,101317.84
2022-08-17T17:57:08.319Z,101319.50
2022-08-17T17:59:44.138Z,101317.03
2022-08-17T18:02:40.909Z,101314.53
2022-08-17T18:05:12.428Z,101323.38
2022-08-17T18:07:43.844Z,101329.88
2022-08-17T18:10:29.723Z,101333.06
2022-08-17T18:13:01.712Z,101346.59
2022-08-17T18:15:33.954Z,101346.03
2022-08-17T18:18:03.022Z,101347.41
2022-08-17T18:20:43.242Z,101346.94
2022-08-17T18:23:18.665Z,101352.09
2022-08-17T18:25:48.757Z,101348.44
2022-08-17T18:28:25.209Z,101343.97
2022-08-17T18:31:07.299Z,101343.13
2022-08-17T18:33:34.995Z,101349.16
2022-08-17T18:36:02.530Z,101350.31
2022-08-17T18:38:31.345Z,101349.50
2022-08-17T18:41:02.035Z,101351.50
2022-08-17T18:43:44.030Z,101349.50
2022-08-17T18:46:28.197Z,101358.81
2022-08-17T18:49:07.588Z,101353.16
2022-08-17T18:51:42.464Z,101353.16
2022-08-17T18:54:15.141Z,101347.50
2022-08-17T18:56:43.142Z,101343.47
2022-08-17T18:59:21.239Z,101341.81
2022-08-17T19:02:01.890Z,101348.66
2022-08-17T19:04:37.420Z,101354.31
2022-08-17T19:07:06.913Z,101353.84
2022-08-17T19:09:36.437Z,101365.16
2022-08-17T19:12:05.790Z,101352.22
2022-08-17T19:14:33.934Z,101357.41
2022-08-17T19:17:05.819Z,101355.25
2022-08-17T19:19:39.004Z,101362.44
2022-08-17T19:22:10.993Z,101372.75
2022-08-17T19:24:47.576Z,101369.44
2022-08-17T19:27:18.579Z,101373.31
2022-08-17T19:29:51.080Z,101374.03
2022-08-17T19:32:21.347Z,101374.72
2022-08-17T19:34:50.342Z,101370.91
2022-08-17T19:37:24.795Z,101368.78
2022-08-17T19:39:58.055Z,101373.94
2022-08-17T19:42:33.897Z,101371.81
2022-08-17T19:45:03.364Z,101371.69
2022-08-17T19:47:54.226Z,101376.03
2022-08-17T19:50:29.201Z,101376.72
2022-08-17T19:52:58.895Z,101377.06
2022-08-17T19:55:31.601Z,101378.56
2022-08-17T19:58:03.089Z,101383.41
2022-08-17T20:00:32.155Z,101376.91
2022-08-17T20:03:06.102Z,101378.91
2022-08-17T20:06:00.890Z,101375.25
2022-08-17T20:08:26.801Z,101374.09
2022-08-17T20:10:56.469Z,101374.09
2022-08-17T20:13:33.489Z,101384.56
2022-08-17T20:16:01.551Z,101376.44
2022-08-17T20:18:31.811Z,101373.94
2022-08-17T20:21:02.969Z,101386.09
2022-08-17T20:23:37.006Z,101384.09
2022-08-17T20:26:10.038Z,101383.25
2022-08-17T20:28:38.983Z,101386.09
2022-08-17T20:31:21.566Z,101379.59
2022-08-17T20:33:49.092Z,101381.09
2022-08-17T20:36:19.228Z,101379.81
2022-08-17T20:38:48.429Z,101385.47
2022-08-17T20:41:17.031Z,101384.50
2022-08-17T20:43:51.459Z,101384.34
2022-08-17T20:46:24.045Z,101393.53
2022-08-17T20:48:54.422Z,101398.69
2022-08-17T20:51:32.406Z,101404.69
2022-08-17T20:54:04.456Z,101403.03
2022-08-17T20:56:48.654Z,101404.19
2022-08-17T20:59:31.646Z,101403.34
2022-08-17T21:02:07.216Z,101393.22
2022-08-17T21:04:44.849Z,101395.22
2022-08-17T21:07:29.027Z,101400.03
2022-08-17T21:10:10.159Z,101409.72
2022-08-17T21:12:42.608Z,101408.53
2022-08-17T21:15:20.801Z,101412.56
2022-08-17T21:17:51.278Z,101407.69
2022-08-17T21:20:32.474Z,101401.69
2022-08-17T21:23:22.004Z,101392.06
2022-08-17T21:26:10.819Z,101395.22
2022-08-17T21:29:00.842Z,101386.28
2022-08-17T21:31:32.077Z,101389.44
2022-08-17T21:34:19.168Z,101389.44
2022-08-17T21:36:48.100Z,101392.59
2022-08-17T21:39:18.167Z,101390.94
2022-08-17T21:41:52.807Z,101392.94
2022-08-17T21:44:22.128Z,101379.97
2022-08-17T21:46:51.218Z,101376.31
2022-08-17T21:49:19.801Z,101375.50
2022-08-17T21:51:49.907Z,101378.66
2022-08-17T21:54:27.854Z,101377.00
2022-08-17T21:56:55.650Z,101382.66
2022-08-17T21:59:27.211Z,101378.50
2022-08-17T22:01:57.613Z,101387.31
2022-08-17T22:04:30.012Z,101384.00
2022-08-17T22:06:59.117Z,101383.19
2022-08-17T22:09:29.281Z,101392.00
2022-08-17T22:12:03.860Z,101386.69
2022-08-17T22:14:52.181Z,101394.31
2022-08-17T22:17:22.790Z,101390.69
2022-08-17T22:19:51.441Z,101395.50
2022-08-17T22:22:26.318Z,101395.84
2022-08-17T22:24:57.815Z,101400.31
2022-08-17T22:27:40.209Z,101405.63
2022-08-17T22:30:15.299Z,101406.13
2022-08-17T22:32:44.622Z,101411.44
2022-08-17T22:35:19.959Z,101411.44
2022-08-17T22:37:47.586Z,101408.63
2022-08-17T22:40:27.216Z,101409.44
2022-08-17T22:42:54.862Z,101407.47
2022-08-17T22:45:23.712Z,101406.63
2022-08-17T22:47:54.433Z,101411.94
2022-08-17T22:50:23.721Z,101408.28
2022-08-17T22:53:15.048Z,101409.13
2022-08-17T22:56:08.827Z,101412.78
2022-08-17T22:59:00.218Z,101406.28
2022-08-17T23:01:28.769Z,101405.78
2022-08-17T23:03:57.262Z,101415.09
2022-08-17T23:06:25.255Z,101422.75
2022-08-17T23:08:54.901Z,101428.41
2022-08-17T23:11:42.884Z,101422.75
2022-08-17T23:14:14.464Z,101417.09
2022-08-17T23:16:43.509Z,101421.59
2022-08-17T23:19:11.443Z,101413.94
2022-08-17T23:21:39.337Z,101405.47
2022-08-17T23:24:08.789Z,101413.13
2022-08-17T23:26:39.287Z,101420.44
2022-08-17T23:29:06.928Z,101412.78
2022-08-17T23:31:35.160Z,101418.09
2022-08-17T23:34:02.766Z,101416.91
2022-08-17T23:36:31.629Z,101407.59
2022-08-17T23:38:59.259Z,101409.28
2022-08-17T23:41:28.745Z,101406.44
2022-08-17T23:43:57.704Z,101408.44
2022-08-17T23:46:25.285Z,101409.28
2022-08-17T23:48:54.101Z,101410.09
2022-08-17T23:51:24.150Z,101407.28
2022-08-17T23:53:53.740Z,101403.63
2022-08-17T23:56:24.444Z,101403.63
2022-08-17T23:58:52.232Z,101400.78
